Time,TemperatureF,DewpointF,PressureIn,WindDirection,WindDirectionDegrees,WindSpeedMPH,WindSpeedGustMPH,Humidity,HourlyPrecipIn,Conditions,Clouds,dailyrainin,SoftwareType,DateUTC
2013-05-21 00:01:00,63.9,56.8,29.86,South,180,0.0,0.0,78,0.00,,,0.00,WUHU21623XXSP,2013-05-21 05:01:00,
2013-05-21 00:06:00,63.3,56.5,29.86,South,180,0.0,0.0,78,0.00,,,0.00,WUHU21623XXSP,2013-05-21 05:06:00,
2013-05-21 00:11:00,63.0,56.7,29.85,South,180,0.0,0.0,79,0.00,,,0.00,WUHU21623XXSP,2013-05-21 05:11:00,
2013-05-21 00:13:00,62.8,56.3,29.85,South,180,0.0,0.0,79,0.00,,,0.00,WUHU21623XXSP,2013-05-21 05:13:00,
2013-05-21 00:16:00,62.8,56.5,29.86,South,180,0.0,0.0,80,0.00,,,0.00,WUHU21623XXSP,2013-05-21 05:16:00,
2013-05-21 00:21:00,62.4,56.1,29.86,South,180,0.0,0.0,80,0.00,,,0.00,WUHU21623XXSP,2013-05-21 05:21:00,
2013-05-21 00:26:00,62.1,56.1,29.86,South,180,0.0,0.0,81,0.00,,,0.00,WUHU21623XXSP,2013-05-21 05:26:00,
2013-05-21 00:31:00,61.9,56.0,29.86,South,180,0.0,0.0,81,0.00,,,0.00,WUHU21623XXSP,2013-05-21 05:31:00,
2013-05-21 00:36:00,61.5,55.7,29.87,South,180,0.0,0.0,82,0.00,,,0.00,WUHU21623XXSP,2013-05-21 05:36:00,
2013-05-21 00:41:00,61.3,56.1,29.87,South,180,0.0,0.0,83,0.00,,,0.00,WUHU21623XXSP,2013-05-21 05:41:00,
2013-05-21 00:46:00,61.2,56.1,29.88,South,180,0.0,0.0,83,0.00,,,0.00,WUHU21623XXSP,2013-05-21 05:46:00,
2013-05-21 00:51:00,61.0,56.1,29.88,South,180,0.0,0.0,84,0.00,,,0.00,WUHU21623XXSP,2013-05-21 05:51:00,
2013-05-21 00:56:00,61.0,56.1,29.88,South,180,0.0,0.0,84,0.00,,,0.00,WUHU21623XXSP,2013-05-21 05:56:00,
2013-05-21 01:01:00,61.0,56.1,29.88,South,180,0.0,0.0,84,0.00,,,0.00,WUHU21623XXSP,2013-05-21 06:01:00,
2013-05-21 01:06:00,60.8,56.0,29.89,South,180,0.0,0.0,84,0.00,,,0.00,WUHU21623XXSP,2013-05-21 06:06:00,
2013-05-21 01:11:00,60.6,55.8,29.89,South,180,0.0,0.0,84,0.00,,,0.00,WUHU21623XXSP,2013-05-21 06:11:00,
2013-05-21 01:13:00,60.6,55.8,29.89,South,180,0.0,0.0,84,0.00,,,0.00,WUHU21623XXSP,2013-05-21 06:13:00,
2013-05-21 01:16:00,60.6,55.8,29.89,South,180,0.0,0.0,84,0.00,,,0.00,WUHU21623XXSP,2013-05-21 06:16:00,
2013-05-21 01:21:00,60.4,55.6,29.88,South,180,0.0,0.0,84,0.00,,,0.00,WUHU21623XXSP,2013-05-21 06:21:00,
2013-05-21 01:26:00,60.4,55.6,29.88,South,180,0.0,0.0,84,0.00,,,0.00,WUHU21623XXSP,2013-05-21 06:26:00,
2013-05-21 01:31:00,60.4,55.6,29.88,South,180,0.0,0.0,84,0.00,,,0.00,WUHU21623XXSP,2013-05-21 06:31:00,
2013-05-21 01:36:00,60.3,55.6,29.88,South,180,0.0,0.0,84,0.00,,,0.00,WUHU21623XXSP,2013-05-21 06:36:00,
2013-05-21 01:41:00,60.1,55.3,29.86,South,180,0.0,0.0,84,0.00,,,0.00,WUHU21623XXSP,2013-05-21 06:41:00,
2013-05-21 01:46:00,60.1,55.3,29.86,South,180,0.0,0.0,84,0.00,,,0.00,WUHU21623XXSP,2013-05-21 06:46:00,
2013-05-21 01:51:00,59.9,55.4,29.84,South,180,0.0,0.0,85,0.00,,,0.00,WUHU21623XXSP,2013-05-21 06:51:00,
2013-05-21 01:56:00,59.9,55.4,29.83,South,180,0.0,0.0,85,0.00,,,0.00,WUHU21623XXSP,2013-05-21 06:56:00,
2013-05-21 02:01:00,59.7,55.2,29.83,South,180,0.0,0.0,85,0.00,,,0.00,WUHU21623XXSP,2013-05-21 07:01:00,
2013-05-21 02:06:00,59.7,55.2,29.83,South,180,0.0,0.0,85,0.00,,,0.00,WUHU21623XXSP,2013-05-21 07:06:00,
2013-05-21 02:11:00,59.9,55.2,29.83,South,180,0.0,0.0,85,0.00,,,0.00,WUHU21623XXSP,2013-05-21 07:11:00,
2013-05-21 02:13:00,60.1,55.9,29.83,South,180,0.0,0.0,86,0.00,,,0.00,WUHU21623XXSP,2013-05-21 07:13:00,
2013-05-21 02:16:00,60.1,55.9,29.82,South,180,0.0,0.0,86,0.00,,,0.00,WUHU21623XXSP,2013-05-21 07:16:00,
2013-05-21 02:21:00,60.3,55.8,29.82,South,180,0.0,0.0,85,0.00,,,0.00,WUHU21623XXSP,2013-05-21 07:21:00,
2013-05-21 02:26:00,60.4,55.9,29.82,South,180,0.0,0.0,85,0.00,,,0.00,WUHU21623XXSP,2013-05-21 07:26:00,
2013-05-21 02:31:00,60.4,55.9,29.83,South,180,0.0,0.0,85,0.00,,,0.00,WUHU21623XXSP,2013-05-21 07:31:00,
2013-05-21 02:36:00,60.6,55.9,29.83,South,180,0.0,0.0,85,0.00,,,0.00,WUHU21623XXSP,2013-05-21 07:36:00,
2013-05-21 02:41:00,60.6,56.1,29.83,South,180,0.0,0.0,85,0.00,,,0.00,WUHU21623XXSP,2013-05-21 07:41:00,
2013-05-21 02:46:00,60.6,56.1,29.83,South,180,0.0,0.0,85,0.00,,,0.00,WUHU21623XXSP,2013-05-21 07:46:00,
2013-05-21 02:51:00,60.6,56.1,29.82,South,180,0.0,0.0,85,0.00,,,0.00,WUHU21623XXSP,2013-05-21 07:51:00,
2013-05-21 02:56:00,60.4,55.9,29.83,South,180,0.0,0.0,85,0.00,,,0.00,WUHU21623XXSP,2013-05-21 07:56:00,
2013-05-21 03:01:00,60.4,55.9,29.82,South,180,0.0,0.0,85,0.00,,,0.00,WUHU21623XXSP,2013-05-21 08:01:00,
2013-05-21 03:06:00,60.4,55.9,29.84,South,180,0.0,0.0,85,0.00,,,0.00,WUHU21623XXSP,2013-05-21 08:06:00,
2013-05-21 03:11:00,60.3,55.8,29.84,South,180,0.0,0.0,85,0.00,,,0.00,WUHU21623XXSP,2013-05-21 08:11:00,
2013-05-21 03:13:00,60.3,56.1,29.84,South,180,0.0,0.0,86,0.00,,,0.00,WUHU21623XXSP,2013-05-21 08:13:00,
2013-05-21 03:16:00,60.3,56.1,29.84,South,180,0.0,0.0,86,0.00,,,0.00,WUHU21623XXSP,2013-05-21 08:16:00,
2013-05-21 03:21:00,60.4,56.3,29.84,South,180,0.0,0.0,86,0.00,,,0.00,WUHU21623XXSP,2013-05-21 08:21:00,
2013-05-21 03:26:00,60.4,56.3,29.86,SW,225,0.0,0.0,86,0.00,,,0.00,WUHU21623XXSP,2013-05-21 08:26:00,
2013-05-21 03:31:00,60.6,56.3,29.87,SW,225,0.0,0.0,86,0.00,,,0.00,WUHU21623XXSP,2013-05-21 08:31:00,
2013-05-21 03:36:00,60.6,56.4,29.88,WSW,247,0.0,0.0,86,0.00,,,0.00,WUHU21623XXSP,2013-05-21 08:36:00,
2013-05-21 03:41:00,61.0,56.8,29.89,SW,225,0.0,0.0,86,0.00,,,0.00,WUHU21623XXSP,2013-05-21 08:41:00,
2013-05-21 03:46:00,61.2,56.8,29.90,SSW,202,0.0,0.0,86,0.00,,,0.00,WUHU21623XXSP,2013-05-21 08:46:00,
2013-05-21 03:51:00,61.7,57.3,29.91,South,180,0.0,0.0,87,0.00,,,0.00,WUHU21623XXSP,2013-05-21 08:51:00,
2013-05-21 03:56:00,61.9,58.0,29.90,WSW,247,6.3,6.3,87,0.00,,,0.00,WUHU21623XXSP,2013-05-21 08:56:00,
2013-05-21 04:01:00,62.2,57.8,29.90,SSW,202,1.1,6.3,86,0.00,,,0.00,WUHU21623XXSP,2013-05-21 09:01:00,
2013-05-21 04:06:00,62.4,58.0,29.91,SW,225,0.0,1.8,86,0.00,,,0.00,WUHU21623XXSP,2013-05-21 09:06:00,
2013-05-21 04:11:00,62.2,58.0,29.92,SSW,202,0.0,1.8,86,0.00,,,0.00,WUHU21623XXSP,2013-05-21 09:11:00,
2013-05-21 04:13:00,62.2,58.0,29.92,SSW,203,0.0,0.0,86,0.00,,,0.00,WUHU21623XXSP,2013-05-21 09:13:00,
2013-05-21 04:16:00,62.2,58.0,29.93,SSW,202,0.0,0.0,86,0.00,,,0.00,WUHU21623XXSP,2013-05-21 09:16:00,
2013-05-21 04:22:00,62.1,58.2,29.93,SSW,202,2.9,2.9,87,0.00,,,0.00,WUHU21623XXSP,2013-05-21 09:22:00,
2013-05-21 04:27:00,61.9,58.0,29.93,WSW,247,0.7,2.9,87,0.00,,,0.00,WUHU21623XXSP,2013-05-21 09:27:00,
2013-05-21 04:32:00,61.7,57.8,29.92,SSW,202,3.8,3.8,87,0.00,,,0.00,WUHU21623XXSP,2013-05-21 09:32:00,
2013-05-21 04:37:00,61.5,57.6,29.90,SSW,202,3.8,3.8,88,0.00,,,0.00,WUHU21623XXSP,2013-05-21 09:37:00,
2013-05-21 04:42:00,61.5,58.0,29.86,ESE,112,0.0,3.8,88,0.00,,,0.00,WUHU21623XXSP,2013-05-21 09:42:00,
2013-05-21 04:47:00,61.3,57.7,29.89,South,180,0.0,0.0,88,0.00,,,0.00,WUHU21623XXSP,2013-05-21 09:47:00,
2013-05-21 04:52:00,61.2,57.8,29.82,SE,135,0.0,0.0,88,0.00,,,0.00,WUHU21623XXSP,2013-05-21 09:52:00,
2013-05-21 04:57:00,61.0,57.6,29.82,SE,135,0.0,0.0,88,0.00,,,0.00,WUHU21623XXSP,2013-05-21 09:57:00,
2013-05-21 05:02:00,61.0,57.4,29.80,SSE,157,0.0,0.0,88,0.00,,,0.00,WUHU21623XXSP,2013-05-21 10:02:00,
2013-05-21 05:07:00,61.0,57.4,29.81,South,180,0.0,0.0,88,0.00,,,0.00,WUHU21623XXSP,2013-05-21 10:07:00,
2013-05-21 05:12:00,61.0,57.4,29.81,SSW,202,0.0,0.0,88,0.00,,,0.00,WUHU21623XXSP,2013-05-21 10:12:00,
2013-05-21 05:13:00,61.0,57.4,29.80,SSW,203,0.0,0.0,88,0.00,,,0.00,WUHU21623XXSP,2013-05-21 10:13:00,
2013-05-21 05:17:00,61.0,57.4,29.80,SSW,202,0.0,0.0,88,0.00,,,0.00,WUHU21623XXSP,2013-05-21 10:17:00,
2013-05-21 05:22:00,60.6,57.3,29.80,SSW,202,0.0,0.0,88,0.00,,,0.00,WUHU21623XXSP,2013-05-21 10:22:00,
2013-05-21 05:27:00,60.6,57.1,29.80,SSW,202,0.0,0.0,88,0.00,,,0.00,WUHU21623XXSP,2013-05-21 10:27:00,
2013-05-21 05:32:00,60.6,57.1,29.80,SSW,202,0.0,0.0,88,0.00,,,0.00,WUHU21623XXSP,2013-05-21 10:32:00,
2013-05-21 05:37:00,60.4,56.9,29.82,SSW,202,0.0,0.0,88,0.00,,,0.00,WUHU21623XXSP,2013-05-21 10:37:00,
2013-05-21 05:42:00,60.4,56.9,29.84,WSW,247,0.0,0.0,88,0.00,,,0.00,WUHU21623XXSP,2013-05-21 10:42:00,
2013-05-21 05:47:00,60.4,57.2,29.85,SW,225,0.0,0.0,89,0.00,,,0.00,WUHU21623XXSP,2013-05-21 10:47:00,
2013-05-21 05:52:00,60.4,57.2,29.86,SW,225,0.0,0.0,89,0.00,,,0.00,WUHU21623XXSP,2013-05-21 10:52:00,
2013-05-21 05:57:00,60.3,57.1,29.86,WSW,247,0.0,0.0,89,0.00,,,0.00,WUHU21623XXSP,2013-05-21 10:57:00,
2013-05-21 06:02:00,60.1,56.9,29.85,WSW,247,0.0,0.0,89,0.00,,,0.00,WUHU21623XXSP,2013-05-21 11:02:00,
2013-05-21 06:07:00,60.1,56.9,29.86,WSW,247,0.0,0.0,89,0.00,,,0.00,WUHU21623XXSP,2013-05-21 11:07:00,
2013-05-21 06:12:00,60.1,56.9,29.86,WSW,247,0.0,0.0,89,0.00,,,0.00,WUHU21623XXSP,2013-05-21 11:12:00,
2013-05-21 06:13:00,60.1,56.8,29.86,WSW,248,0.0,0.0,89,0.00,,,0.00,WUHU21623XXSP,2013-05-21 11:13:00,
2013-05-21 06:17:00,60.1,56.9,29.87,WSW,247,0.0,0.0,89,0.00,,,0.00,WUHU21623XXSP,2013-05-21 11:17:00,
2013-05-21 06:22:00,60.1,56.9,29.87,WSW,247,0.0,0.0,89,0.00,,,0.00,WUHU21623XXSP,2013-05-21 11:22:00,
2013-05-21 06:27:00,60.1,56.9,29.89,WSW,247,0.0,0.0,89,0.00,,,0.00,WUHU21623XXSP,2013-05-21 11:27:00,
2013-05-21 06:32:00,60.1,56.9,29.90,WSW,247,0.0,0.0,89,0.00,,,0.00,WUHU21623XXSP,2013-05-21 11:32:00,
2013-05-21 06:37:00,60.1,57.2,29.90,WSW,247,0.0,0.0,90,0.00,,,0.00,WUHU21623XXSP,2013-05-21 11:37:00,
2013-05-21 06:42:00,60.1,57.2,29.90,WSW,247,0.0,0.0,90,0.00,,,0.00,WUHU21623XXSP,2013-05-21 11:42:00,
2013-05-21 06:51:00,60.1,57.2,29.92,WSW,247,0.0,0.0,90,0.00,,,0.00,WUHU21623XXSP,2013-05-21 11:51:00,
2013-05-21 06:56:00,59.9,57.0,29.93,WSW,247,0.0,0.0,90,0.00,,,0.00,WUHU21623XXSP,2013-05-21 11:56:00,
2013-05-21 07:01:00,60.1,57.0,29.94,WSW,247,0.0,0.0,90,0.00,,,0.00,WUHU21623XXSP,2013-05-21 12:01:00,
2013-05-21 07:06:00,60.1,57.0,29.94,WSW,247,0.0,0.0,90,0.00,,,0.00,WUHU21623XXSP,2013-05-21 12:06:00,
2013-05-21 10:10:00,94.3,94.0,29.97,SW,225,0.0,0.0,99,0.00,,,0.00,WUHU21623XXSP,2013-05-21 15:10:00,
2013-05-21 10:15:00,94.3,94.0,29.97,SW,225,0.0,0.0,99,0.00,,,0.00,WUHU21623XXSP,2013-05-21 15:15:00,
2013-05-21 18:54:00,18.1,17.9,29.70,SE,135,2.0,2.0,99,0.00,,,0.00,WUHU21623XXSP,2013-05-21 23:54:00,
2013-05-21 18:59:00,18.1,17.9,29.70,SE,135,2.0,2.0,99,0.00,,,0.00,WUHU21623XXSP,2013-05-21 23:59:00,
2013-05-21 20:13:00,60.6,56.4,29.81,SW,225,0.0,0.0,86,0.00,,,0.00,WUHU21623XXSP,2013-05-22 01:13:00,
2013-05-21 20:18:00,60.6,56.1,29.82,SW,225,0.0,0.0,85,0.00,,,0.00,WUHU21623XXSP,2013-05-22 01:18:00,
2013-05-21 20:23:00,60.6,56.1,29.82,SW,225,0.0,0.0,85,0.00,,,0.00,WUHU21623XXSP,2013-05-22 01:23:00,
2013-05-21 20:28:00,60.4,56.3,29.82,SW,225,0.0,0.0,86,0.00,,,0.00,WUHU21623XXSP,2013-05-22 01:28:00,
2013-05-21 20:33:00,60.1,56.1,29.83,SW,225,0.0,0.0,86,0.00,,,0.00,WUHU21623XXSP,2013-05-22 01:33:00,
2013-05-21 20:38:00,60.1,55.9,29.84,SW,225,0.0,0.0,86,0.00,,,0.00,WUHU21623XXSP,2013-05-22 01:38:00,
2013-05-21 20:43:00,59.9,55.7,29.84,SW,225,0.0,0.0,86,0.00,,,0.00,WUHU21623XXSP,2013-05-22 01:43:00,
2013-05-21 20:48:00,59.7,55.5,29.85,WSW,247,0.0,0.0,86,0.00,,,0.00,WUHU21623XXSP,2013-05-22 01:48:00,
2013-05-21 20:53:00,59.7,55.5,29.84,SSW,202,0.0,0.0,86,0.00,,,0.00,WUHU21623XXSP,2013-05-22 01:53:00,
2013-05-21 20:58:00,59.5,55.7,29.84,SSW,202,0.0,0.0,87,0.00,,,0.00,WUHU21623XXSP,2013-05-22 01:58:00,
2013-05-21 21:03:00,59.5,55.7,29.84,WSW,247,0.0,0.0,87,0.00,,,0.00,WUHU21623XXSP,2013-05-22 02:03:00,
2013-05-21 21:08:00,59.5,55.7,29.84,WSW,247,0.0,0.0,87,0.00,,,0.00,WUHU21623XXSP,2013-05-22 02:08:00,
2013-05-21 21:13:00,59.4,55.5,29.85,WSW,247,0.0,0.0,87,0.00,,,0.00,WUHU21623XXSP,2013-05-22 02:13:00,
2013-05-21 21:18:00,59.2,55.3,29.86,WSW,247,0.0,0.0,87,0.00,,,0.00,WUHU21623XXSP,2013-05-22 02:18:00,
2013-05-21 21:23:00,58.8,55.3,29.86,WSW,247,0.0,0.0,87,0.00,,,0.00,WUHU21623XXSP,2013-05-22 02:23:00,
2013-05-21 21:28:00,58.8,55.0,29.87,WSW,247,0.0,0.0,87,0.00,,,0.00,WUHU21623XXSP,2013-05-22 02:28:00,
2013-05-21 21:33:00,58.8,55.0,29.87,WSW,247,0.0,0.0,87,0.00,,,0.00,WUHU21623XXSP,2013-05-22 02:33:00,
2013-05-21 21:38:00,58.8,55.0,29.87,WSW,247,0.0,0.0,87,0.00,,,0.00,WUHU21623XXSP,2013-05-22 02:38:00,
2013-05-21 21:43:00,58.8,55.3,29.88,WSW,247,0.0,0.0,88,0.00,,,0.00,WUHU21623XXSP,2013-05-22 02:43:00,
2013-05-21 21:48:00,58.8,55.3,29.88,WSW,247,0.0,0.0,88,0.00,,,0.00,WUHU21623XXSP,2013-05-22 02:48:00,
2013-05-21 21:53:00,58.8,55.3,29.87,WSW,247,0.0,0.0,88,0.00,,,0.00,WUHU21623XXSP,2013-05-22 02:53:00,
2013-05-21 21:58:00,58.8,55.3,29.88,SW,225,0.0,0.0,88,0.00,,,0.00,WUHU21623XXSP,2013-05-22 02:58:00,
2013-05-21 22:03:00,58.8,55.3,29.88,SW,225,0.0,0.0,88,0.00,,,0.00,WUHU21623XXSP,2013-05-22 03:03:00,
2013-05-21 22:08:00,58.8,55.3,29.88,SW,225,0.0,0.0,88,0.00,,,0.00,WUHU21623XXSP,2013-05-22 03:08:00,
2013-05-21 22:13:00,58.8,55.3,29.89,SW,225,0.0,0.0,88,0.00,,,0.00,WUHU21623XXSP,2013-05-22 03:13:00,
2013-05-21 22:18:00,58.8,55.3,29.88,SSW,202,0.0,0.0,88,0.00,,,0.00,WUHU21623XXSP,2013-05-22 03:18:00,
2013-05-21 22:23:00,58.8,55.3,29.88,SW,225,0.0,0.0,88,0.00,,,0.00,WUHU21623XXSP,2013-05-22 03:23:00,
2013-05-21 22:28:00,58.8,55.3,29.88,SW,225,0.0,0.0,88,0.00,,,0.00,WUHU21623XXSP,2013-05-22 03:28:00,
2013-05-21 22:33:00,58.8,55.3,29.89,SW,225,0.0,0.0,88,0.00,,,0.00,WUHU21623XXSP,2013-05-22 03:33:00,
2013-05-21 22:38:00,58.8,55.3,29.89,SW,225,0.0,0.0,88,0.00,,,0.00,WUHU21623XXSP,2013-05-22 03:38:00,
2013-05-21 22:43:00,58.8,55.3,29.89,SW,225,0.0,0.0,88,0.00,,,0.00,WUHU21623XXSP,2013-05-22 03:43:00,
2013-05-21 22:48:00,58.8,55.3,29.89,SW,225,0.0,0.0,88,0.00,,,0.00,WUHU21623XXSP,2013-05-22 03:48:00,
2013-05-21 22:53:00,58.8,55.3,29.89,SW,225,0.0,0.0,88,0.00,,,0.00,WUHU21623XXSP,2013-05-22 03:53:00,
2013-05-21 22:58:00,58.8,55.0,29.89,SW,225,0.0,0.0,87,0.00,,,0.00,WUHU21623XXSP,2013-05-22 03:58:00,
2013-05-21 23:03:00,58.8,55.0,29.89,SW,225,0.0,0.0,87,0.00,,,0.00,WUHU21623XXSP,2013-05-22 04:03:00,
2013-05-21 23:08:00,58.8,55.0,29.89,SW,225,0.0,0.0,87,0.00,,,0.00,WUHU21623XXSP,2013-05-22 04:08:00,
2013-05-21 23:13:00,58.8,55.0,29.89,SW,225,0.0,0.0,87,0.00,,,0.00,WUHU21623XXSP,2013-05-22 04:13:00,
2013-05-21 23:18:00,58.8,55.0,29.89,SW,225,0.0,0.0,87,0.00,,,0.00,WUHU21623XXSP,2013-05-22 04:18:00,
2013-05-21 23:23:00,58.8,55.0,29.89,SW,225,0.0,0.0,87,0.00,,,0.00,WUHU21623XXSP,2013-05-22 04:23:00,
2013-05-21 23:28:00,58.8,55.0,29.89,SW,225,0.0,0.0,87,0.00,,,0.00,WUHU21623XXSP,2013-05-22 04:28:00,
2013-05-21 23:33:00,58.8,55.0,29.89,SW,225,0.0,0.0,87,0.00,,,0.00,WUHU21623XXSP,2013-05-22 04:33:00,
2013-05-21 23:38:00,58.6,54.8,29.89,SW,225,0.0,0.0,87,0.00,,,0.00,WUHU21623XXSP,2013-05-22 04:38:00,
2013-05-21 23:43:00,58.5,54.6,29.89,SW,225,0.0,0.0,87,0.00,,,0.00,WUHU21623XXSP,2013-05-22 04:43:00,
2013-05-21 23:48:00,58.3,54.4,29.88,SW,225,0.0,0.0,88,0.00,,,0.00,WUHU21623XXSP,2013-05-22 04:48:00,
2013-05-21 23:53:00,58.3,54.8,29.88,SW,225,0.0,0.0,88,0.00,,,0.00,WUHU21623XXSP,2013-05-22 04:53:00,
2013-05-21 23:58:00,58.1,54.6,29.88,SW,225,0.0,0.0,88,0.00,,,0.00,WUHU21623XXSP,2013-05-22 04:58:00,